EZY75FC EGKK-LCPH
Flight info
| Callsign | EZY75FC |
|---|---|
| Flight time | 3h 56m |
| Altitude | 35000 |
| Route | ODVIK Y311 DVR UL9 KONAN DCT KOK DCT LIRSU DCT LALMI DCT ABTAL DCT LATLO DCT OBEDI DCT CEPRA DCT PODET DCT NOVLO DCT YULHU DCT VABEK UL603 OLOTA DCT RUGAS DCT RIKSO UP14 ZAFLE DCT BENEM DCT EVENO DCT DASNI/N0423F330 DCT TOBAL |
| Aircraft | A320/M-SDE2E3FGHIJ1RWXYZ/LB1 |
Departure
| Time | 2026-05-07 16:56 |
|---|---|
| Airport | London Gatwick Airport (EGKK) |
Arrival
| Time | 2026-05-07 20:53 |
|---|---|
| Airport | Paphos International Airport (LCPH) |
| Time | Latitude | Longitude | Altitude | Speed | Heading |
|---|---|---|---|---|---|
| 2026-05-07 16:24 | 51.15583 | -0.17685 | 205 ft | 0 kts | 348° |
| 2026-05-07 16:45 | 51.15580 | -0.17684 | 205 ft | 3 kts | 348° |
| 2026-05-07 16:45 | 51.15554 | -0.17673 | 217 ft | 4 kts | 337° |
| 2026-05-07 16:45 | 51.15531 | -0.17652 | 210 ft | 4 kts | 309° |
| 2026-05-07 16:46 | 51.15524 | -0.17624 | 217 ft | 1 kts | 258° |
| 2026-05-07 16:46 | 51.15525 | -0.17617 | 217 ft | 0 kts | 258° |
| 2026-05-07 16:48 | 51.15524 | -0.17619 | 217 ft | 1 kts | 258° |
| 2026-05-07 16:48 | 51.15519 | -0.17655 | 207 ft | 8 kts | 258° |
| 2026-05-07 16:49 | 51.15503 | -0.17772 | 214 ft | 13 kts | 258° |
| 2026-05-07 16:49 | 51.15480 | -0.17942 | 208 ft | 17 kts | 257° |
| 2026-05-07 16:49 | 51.15457 | -0.18113 | 208 ft | 15 kts | 257° |
| 2026-05-07 16:49 | 51.15432 | -0.18256 | 211 ft | 12 kts | 238° |
| 2026-05-07 16:50 | 51.15361 | -0.18270 | 208 ft | 11 kts | 168° |
| 2026-05-07 16:50 | 51.15281 | -0.18243 | 208 ft | 13 kts | 168° |
| 2026-05-07 16:50 | 51.15193 | -0.18261 | 208 ft | 14 kts | 239° |
| 2026-05-07 16:50 | 51.15171 | -0.18434 | 214 ft | 18 kts | 257° |
| 2026-05-07 16:51 | 51.15143 | -0.18637 | 213 ft | 21 kts | 258° |
| 2026-05-07 16:51 | 51.15111 | -0.18880 | 211 ft | 23 kts | 257° |
| 2026-05-07 16:51 | 51.15075 | -0.19143 | 206 ft | 26 kts | 258° |
| 2026-05-07 16:51 | 51.15033 | -0.19434 | 207 ft | 28 kts | 256° |
| 2026-05-07 16:52 | 51.14994 | -0.19735 | 207 ft | 24 kts | 258° |
| 2026-05-07 16:52 | 51.14957 | -0.19997 | 216 ft | 25 kts | 258° |
| 2026-05-07 16:52 | 51.14920 | -0.20264 | 204 ft | 25 kts | 257° |
| 2026-05-07 16:52 | 51.14883 | -0.20535 | 214 ft | 25 kts | 257° |
| 2026-05-07 16:53 | 51.14845 | -0.20809 | 207 ft | 25 kts | 258° |
| 2026-05-07 16:53 | 51.14806 | -0.21084 | 210 ft | 26 kts | 257° |
| 2026-05-07 16:53 | 51.14762 | -0.21342 | 206 ft | 18 kts | 257° |
| 2026-05-07 16:53 | 51.14673 | -0.21377 | 207 ft | 14 kts | 143° |
| 2026-05-07 16:54 | 51.14625 | -0.21335 | 216 ft | 1 kts | 163° |
| 2026-05-07 16:54 | 51.14622 | -0.21334 | 215 ft | 0 kts | 163° |
| 2026-05-07 16:54 | 51.14581 | -0.21314 | 211 ft | 12 kts | 161° |
| 2026-05-07 16:54 | 51.14525 | -0.21217 | 207 ft | 13 kts | 107° |
| 2026-05-07 16:55 | 51.14534 | -0.21078 | 207 ft | 14 kts | 78° |
| 2026-05-07 16:55 | 51.14578 | -0.20756 | 209 ft | 59 kts | 77° |
| 2026-05-07 16:55 | 51.14713 | -0.19784 | 214 ft | 119 kts | 77° |
| 2026-05-07 16:55 | 51.14918 | -0.18257 | 218 ft | 164 kts | 79° |
| 2026-05-07 16:56 | 51.15186 | -0.16434 | 696 ft | 173 kts | 81° |
| 2026-05-07 16:56 | 51.15411 | -0.14797 | 1346 ft | 173 kts | 80° |
| 2026-05-07 16:56 | 51.15973 | -0.10649 | 1960 ft | 212 kts | 79° |
| 2026-05-07 16:57 | 51.16297 | -0.08253 | 2254 ft | 232 kts | 79° |
| 2026-05-07 16:57 | 51.16654 | -0.05619 | 2611 ft | 253 kts | 79° |
| 2026-05-07 16:57 | 51.16887 | -0.02815 | 3281 ft | 259 kts | 91° |
| 2026-05-07 16:57 | 51.16839 | 0.00068 | 4156 ft | 261 kts | 92° |
| 2026-05-07 16:58 | 51.16785 | 0.02986 | 4906 ft | 265 kts | 91° |
| 2026-05-07 16:58 | 51.16730 | 0.05928 | 5661 ft | 269 kts | 91° |
| 2026-05-07 16:58 | 51.16673 | 0.08935 | 6377 ft | 272 kts | 91° |
| 2026-05-07 16:58 | 51.16614 | 0.11967 | 7100 ft | 275 kts | 91° |
| 2026-05-07 16:59 | 51.16554 | 0.15042 | 7605 ft | 279 kts | 91° |
| 2026-05-07 16:59 | 51.16520 | 0.18148 | 8260 ft | 283 kts | 89° |
| 2026-05-07 16:59 | 51.16522 | 0.21312 | 8919 ft | 287 kts | 88° |
| 2026-05-07 16:59 | 51.16538 | 0.24513 | 9569 ft | 291 kts | 88° |
| 2026-05-07 17:00 | 51.16554 | 0.27768 | 10178 ft | 295 kts | 88° |
| 2026-05-07 17:00 | 51.16570 | 0.31058 | 10775 ft | 299 kts | 88° |
| 2026-05-07 17:00 | 51.16584 | 0.34390 | 11392 ft | 302 kts | 88° |
| 2026-05-07 17:00 | 51.16591 | 0.37756 | 12015 ft | 306 kts | 89° |
| 2026-05-07 17:01 | 51.16592 | 0.41122 | 12624 ft | 309 kts | 89° |
| 2026-05-07 17:01 | 51.16592 | 0.44599 | 13236 ft | 312 kts | 89° |
| 2026-05-07 17:01 | 51.16590 | 0.48076 | 13821 ft | 315 kts | 89° |
| 2026-05-07 17:01 | 51.16589 | 0.51629 | 14086 ft | 330 kts | 89° |
| 2026-05-07 17:02 | 51.16591 | 0.55329 | 14216 ft | 347 kts | 89° |
| 2026-05-07 17:02 | 51.16589 | 0.59270 | 14361 ft | 363 kts | 89° |
| 2026-05-07 17:02 | 51.16586 | 0.63338 | 14735 ft | 371 kts | 89° |
| 2026-05-07 17:02 | 51.16581 | 0.67479 | 15250 ft | 375 kts | 89° |
| 2026-05-07 17:03 | 51.16579 | 0.71641 | 15786 ft | 378 kts | 89° |
| 2026-05-07 17:03 | 51.16573 | 0.75836 | 16320 ft | 381 kts | 90° |
| 2026-05-07 17:03 | 51.16562 | 0.80074 | 16961 ft | 384 kts | 90° |
| 2026-05-07 17:03 | 51.16547 | 0.84348 | 17466 ft | 387 kts | 90° |
| 2026-05-07 17:04 | 51.16529 | 0.88642 | 17966 ft | 389 kts | 90° |
| 2026-05-07 17:04 | 51.16511 | 0.92979 | 18433 ft | 393 kts | 90° |
| 2026-05-07 17:04 | 51.16494 | 0.97200 | 18838 ft | 395 kts | 90° |
| 2026-05-07 17:04 | 51.16474 | 1.01716 | 19276 ft | 398 kts | 90° |
| 2026-05-07 17:05 | 51.16453 | 1.06074 | 19695 ft | 400 kts | 90° |
| 2026-05-07 17:05 | 51.16431 | 1.10546 | 20121 ft | 402 kts | 90° |
| 2026-05-07 17:05 | 51.16407 | 1.15023 | 20534 ft | 405 kts | 90° |
| 2026-05-07 17:05 | 51.16381 | 1.19522 | 20945 ft | 407 kts | 90° |
| 2026-05-07 17:06 | 51.16350 | 1.24040 | 21355 ft | 409 kts | 90° |
| 2026-05-07 17:06 | 51.16316 | 1.28517 | 21744 ft | 411 kts | 91° |
| 2026-05-07 17:06 | 51.16280 | 1.33085 | 22137 ft | 414 kts | 91° |
| 2026-05-07 17:06 | 51.16225 | 1.37670 | 22515 ft | 416 kts | 92° |
| 2026-05-07 17:07 | 51.16077 | 1.42295 | 22892 ft | 418 kts | 94° |
| 2026-05-07 17:07 | 51.15859 | 1.46920 | 23262 ft | 420 kts | 95° |
| 2026-05-07 17:07 | 51.15601 | 1.51577 | 23620 ft | 423 kts | 95° |
| 2026-05-07 17:07 | 51.15336 | 1.56181 | 23929 ft | 425 kts | 95° |
| 2026-05-07 17:08 | 51.15074 | 1.60882 | 24231 ft | 427 kts | 95° |
| 2026-05-07 17:08 | 51.14824 | 1.65595 | 24543 ft | 429 kts | 95° |
| 2026-05-07 17:08 | 51.14584 | 1.70340 | 24852 ft | 430 kts | 95° |
| 2026-05-07 17:08 | 51.14349 | 1.75096 | 25148 ft | 432 kts | 95° |
| 2026-05-07 17:09 | 51.14117 | 1.79808 | 25439 ft | 434 kts | 95° |
| 2026-05-07 17:09 | 51.13873 | 1.84663 | 25731 ft | 435 kts | 95° |
| 2026-05-07 17:09 | 51.13631 | 1.89411 | 26012 ft | 437 kts | 95° |
| 2026-05-07 17:09 | 51.13380 | 1.94245 | 26298 ft | 439 kts | 95° |
| 2026-05-07 17:10 | 51.13125 | 1.99093 | 26578 ft | 440 kts | 95° |
| 2026-05-07 17:10 | 51.12871 | 2.03948 | 26857 ft | 442 kts | 95° |
| 2026-05-07 17:10 | 51.12614 | 2.08828 | 27136 ft | 444 kts | 95° |
| 2026-05-07 17:10 | 51.12354 | 2.13721 | 27399 ft | 445 kts | 96° |
| 2026-05-07 17:11 | 51.12086 | 2.18657 | 27681 ft | 447 kts | 96° |
| 2026-05-07 17:11 | 51.11817 | 2.23590 | 27949 ft | 448 kts | 96° |
| 2026-05-07 17:11 | 51.11547 | 2.28540 | 28214 ft | 450 kts | 96° |
| 2026-05-07 17:11 | 51.11273 | 2.33517 | 28477 ft | 452 kts | 96° |
| 2026-05-07 17:12 | 51.10993 | 2.38496 | 28731 ft | 453 kts | 96° |
| 2026-05-07 17:12 | 51.10711 | 2.43498 | 28965 ft | 454 kts | 96° |
| 2026-05-07 17:12 | 51.10426 | 2.48518 | 29203 ft | 456 kts | 96° |
| 2026-05-07 17:12 | 51.10139 | 2.53542 | 29429 ft | 457 kts | 96° |
| 2026-05-07 17:13 | 51.09851 | 2.58583 | 29660 ft | 459 kts | 96° |
| 2026-05-07 17:13 | 51.09498 | 2.63631 | 29892 ft | 459 kts | 101° |
| 2026-05-07 17:13 | 51.08739 | 2.68552 | 30194 ft | 457 kts | 109° |
| 2026-05-07 17:13 | 51.07705 | 2.73274 | 30469 ft | 456 kts | 110° |
| 2026-05-07 17:14 | 51.06645 | 2.78084 | 30738 ft | 456 kts | 110° |
| 2026-05-07 17:14 | 51.05610 | 2.82773 | 30988 ft | 455 kts | 110° |
| 2026-05-07 17:14 | 51.04564 | 2.87511 | 31229 ft | 455 kts | 110° |
| 2026-05-07 17:14 | 51.03517 | 2.92251 | 31489 ft | 454 kts | 110° |
| 2026-05-07 17:15 | 51.02472 | 2.96976 | 31751 ft | 454 kts | 110° |
| 2026-05-07 17:15 | 51.01422 | 3.01721 | 32002 ft | 453 kts | 110° |
| 2026-05-07 17:15 | 51.00375 | 3.06441 | 32261 ft | 453 kts | 110° |
| 2026-05-07 17:15 | 50.99328 | 3.11144 | 32514 ft | 452 kts | 110° |
| 2026-05-07 17:16 | 50.98280 | 3.15844 | 32761 ft | 452 kts | 110° |
| 2026-05-07 17:16 | 50.97227 | 3.20553 | 32997 ft | 451 kts | 110° |
| 2026-05-07 17:16 | 50.96191 | 3.25173 | 33257 ft | 451 kts | 110° |
| 2026-05-07 17:16 | 50.95125 | 3.29905 | 33515 ft | 450 kts | 110° |
| 2026-05-07 17:17 | 50.94068 | 3.34586 | 33779 ft | 449 kts | 110° |
| 2026-05-07 17:17 | 50.93018 | 3.39237 | 34017 ft | 449 kts | 110° |
| 2026-05-07 17:17 | 50.91965 | 3.43896 | 34230 ft | 448 kts | 111° |
| 2026-05-07 17:17 | 50.90911 | 3.48540 | 34419 ft | 448 kts | 111° |
| 2026-05-07 17:18 | 50.89853 | 3.53183 | 34592 ft | 448 kts | 111° |
| 2026-05-07 17:18 | 50.88790 | 3.57835 | 34759 ft | 448 kts | 111° |
| 2026-05-07 17:18 | 50.87727 | 3.62472 | 34923 ft | 448 kts | 111° |
| 2026-05-07 17:18 | 50.86676 | 3.67050 | 35041 ft | 449 kts | 111° |
| 2026-05-07 17:19 | 50.84552 | 3.76301 | 35075 ft | 448 kts | 111° |
| 2026-05-07 17:19 | 50.82457 | 3.85421 | 35074 ft | 447 kts | 111° |
| 2026-05-07 17:20 | 50.80342 | 3.94571 | 35079 ft | 447 kts | 111° |
| 2026-05-07 17:20 | 50.78186 | 4.03825 | 35075 ft | 447 kts | 111° |
| 2026-05-07 17:21 | 50.76031 | 4.13032 | 35075 ft | 447 kts | 111° |
| 2026-05-07 17:21 | 50.73869 | 4.22256 | 35076 ft | 447 kts | 111° |
| 2026-05-07 17:22 | 50.71707 | 4.31451 | 35075 ft | 447 kts | 112° |
| 2026-05-07 17:22 | 50.69531 | 4.40638 | 35078 ft | 447 kts | 112° |
| 2026-05-07 17:23 | 50.67345 | 4.49813 | 35076 ft | 447 kts | 112° |
| 2026-05-07 17:23 | 50.65158 | 4.58977 | 35077 ft | 447 kts | 112° |
| 2026-05-07 17:24 | 50.62980 | 4.68094 | 35008 ft | 448 kts | 112° |
| 2026-05-07 17:24 | 50.60765 | 4.77321 | 35073 ft | 453 kts | 112° |
| 2026-05-07 17:25 | 50.58528 | 4.86584 | 35073 ft | 454 kts | 112° |
| 2026-05-07 17:25 | 50.56300 | 4.95767 | 35066 ft | 454 kts | 112° |
| 2026-05-07 17:26 | 50.54040 | 5.05039 | 35061 ft | 454 kts | 112° |
| 2026-05-07 17:26 | 50.51804 | 5.14159 | 35063 ft | 454 kts | 112° |
| 2026-05-07 17:27 | 50.49537 | 5.23391 | 35063 ft | 454 kts | 112° |
| 2026-05-07 17:27 | 50.47268 | 5.32570 | 35061 ft | 454 kts | 112° |
| 2026-05-07 17:28 | 50.44980 | 5.41787 | 35058 ft | 453 kts | 112° |
| 2026-05-07 17:28 | 50.42689 | 5.50997 | 35061 ft | 453 kts | 112° |
| 2026-05-07 17:29 | 50.40392 | 5.60200 | 35065 ft | 453 kts | 113° |
| 2026-05-07 17:29 | 50.38079 | 5.69409 | 35062 ft | 453 kts | 113° |
| 2026-05-07 17:30 | 50.35765 | 5.78589 | 35059 ft | 453 kts | 113° |
| 2026-05-07 17:30 | 50.33449 | 5.87765 | 35056 ft | 453 kts | 113° |
| 2026-05-07 17:31 | 50.31140 | 5.96874 | 35053 ft | 453 kts | 113° |
| 2026-05-07 17:31 | 50.28788 | 6.06083 | 35053 ft | 453 kts | 113° |
| 2026-05-07 17:32 | 50.26457 | 6.15167 | 35052 ft | 453 kts | 113° |
| 2026-05-07 17:32 | 50.24504 | 6.22771 | 35052 ft | 453 kts | 113° |
| 2026-05-07 17:33 | 50.21769 | 6.33385 | 35048 ft | 453 kts | 113° |
| 2026-05-07 17:33 | 50.19405 | 6.42506 | 35045 ft | 453 kts | 113° |
| 2026-05-07 17:34 | 50.16656 | 6.51294 | 35043 ft | 452 kts | 119° |
| 2026-05-07 17:34 | 50.13729 | 6.59933 | 35040 ft | 452 kts | 119° |
| 2026-05-07 17:35 | 50.10792 | 6.68591 | 35039 ft | 452 kts | 119° |
| 2026-05-07 17:35 | 50.07868 | 6.77177 | 35039 ft | 452 kts | 119° |
| 2026-05-07 17:36 | 50.04920 | 6.85814 | 35038 ft | 452 kts | 119° |
| 2026-05-07 17:36 | 50.01964 | 6.94430 | 35038 ft | 452 kts | 119° |
| 2026-05-07 17:37 | 49.99496 | 7.01597 | 35047 ft | 452 kts | 119° |
| 2026-05-07 17:37 | 49.96529 | 7.10193 | 35049 ft | 452 kts | 119° |
| 2026-05-07 17:38 | 49.93569 | 7.18754 | 35051 ft | 452 kts | 119° |
| 2026-05-07 17:38 | 49.90612 | 7.27269 | 35049 ft | 452 kts | 119° |
| 2026-05-07 17:39 | 49.87682 | 7.35676 | 35049 ft | 453 kts | 119° |
| 2026-05-07 17:39 | 49.84701 | 7.44209 | 35050 ft | 453 kts | 119° |
| 2026-05-07 17:40 | 49.81685 | 7.52796 | 35049 ft | 453 kts | 119° |
| 2026-05-07 17:40 | 49.78668 | 7.61347 | 35045 ft | 454 kts | 119° |
| 2026-05-07 17:41 | 49.75641 | 7.69937 | 35045 ft | 454 kts | 119° |
| 2026-05-07 17:41 | 49.72614 | 7.78485 | 35047 ft | 454 kts | 120° |
| 2026-05-07 17:42 | 49.69565 | 7.87044 | 35045 ft | 454 kts | 120° |
| 2026-05-07 17:42 | 49.66530 | 7.95547 | 35047 ft | 455 kts | 120° |
| 2026-05-07 17:43 | 49.63475 | 8.04091 | 35045 ft | 455 kts | 120° |
| 2026-05-07 17:43 | 49.60401 | 8.12641 | 35046 ft | 455 kts | 120° |
| 2026-05-07 17:44 | 49.57373 | 8.21054 | 35048 ft | 456 kts | 120° |
| 2026-05-07 17:44 | 49.54291 | 8.29585 | 35050 ft | 456 kts | 120° |
| 2026-05-07 17:45 | 49.51199 | 8.38105 | 35047 ft | 456 kts | 120° |
| 2026-05-07 17:45 | 49.48098 | 8.46609 | 35051 ft | 456 kts | 120° |
| 2026-05-07 17:46 | 49.45040 | 8.54997 | 35048 ft | 456 kts | 120° |
| 2026-05-07 17:46 | 49.41941 | 8.63483 | 35051 ft | 457 kts | 120° |
| 2026-05-07 17:47 | 49.38845 | 8.71917 | 35053 ft | 457 kts | 120° |
| 2026-05-07 17:47 | 49.35728 | 8.80358 | 35049 ft | 457 kts | 120° |
| 2026-05-07 17:48 | 49.32577 | 8.88814 | 35046 ft | 457 kts | 121° |
| 2026-05-07 17:48 | 49.29388 | 8.97241 | 35050 ft | 457 kts | 121° |
| 2026-05-07 17:49 | 49.26184 | 9.05648 | 35048 ft | 457 kts | 121° |
| 2026-05-07 17:49 | 49.22982 | 9.14043 | 35047 ft | 457 kts | 121° |
| 2026-05-07 17:50 | 49.19771 | 9.22453 | 35047 ft | 457 kts | 121° |
| 2026-05-07 17:50 | 49.16566 | 9.30843 | 35047 ft | 458 kts | 121° |
| 2026-05-07 17:51 | 49.13341 | 9.39241 | 35045 ft | 458 kts | 122° |
| 2026-05-07 17:51 | 49.10110 | 9.47610 | 35048 ft | 458 kts | 122° |
| 2026-05-07 17:52 | 49.06869 | 9.55983 | 35049 ft | 458 kts | 122° |
| 2026-05-07 17:52 | 49.03661 | 9.64264 | 35051 ft | 458 kts | 122° |
| 2026-05-07 17:53 | 49.00436 | 9.72560 | 35050 ft | 458 kts | 122° |
| 2026-05-07 17:53 | 48.97179 | 9.80917 | 35047 ft | 459 kts | 122° |
| 2026-05-07 17:54 | 48.93914 | 9.89249 | 35046 ft | 459 kts | 122° |
| 2026-05-07 17:54 | 48.90632 | 9.97594 | 35045 ft | 459 kts | 122° |
| 2026-05-07 17:55 | 48.87348 | 10.05919 | 35048 ft | 459 kts | 122° |
| 2026-05-07 17:55 | 48.84043 | 10.14217 | 35054 ft | 460 kts | 123° |
| 2026-05-07 17:56 | 48.80652 | 10.22449 | 35063 ft | 459 kts | 124° |
| 2026-05-07 17:56 | 48.77231 | 10.30625 | 35067 ft | 460 kts | 124° |
| 2026-05-07 17:57 | 48.74383 | 10.37438 | 35068 ft | 460 kts | 124° |
| 2026-05-07 17:57 | 48.70410 | 10.46943 | 35067 ft | 460 kts | 124° |
| 2026-05-07 17:58 | 48.66990 | 10.55133 | 35064 ft | 460 kts | 124° |
| 2026-05-07 17:58 | 48.63555 | 10.63329 | 35059 ft | 460 kts | 124° |
| 2026-05-07 17:59 | 48.60157 | 10.71407 | 35055 ft | 461 kts | 124° |
| 2026-05-07 17:59 | 48.56709 | 10.79568 | 35049 ft | 461 kts | 124° |
| 2026-05-07 18:00 | 48.53289 | 10.87635 | 35048 ft | 461 kts | 124° |
| 2026-05-07 18:00 | 48.49829 | 10.95788 | 35048 ft | 461 kts | 124° |
| 2026-05-07 18:01 | 48.46370 | 11.03897 | 35047 ft | 462 kts | 125° |
| 2026-05-07 18:01 | 48.42880 | 11.12049 | 35044 ft | 462 kts | 125° |
| 2026-05-07 18:02 | 48.37698 | 11.24114 | 35038 ft | 462 kts | 125° |
| 2026-05-07 18:03 | 48.34231 | 11.32162 | 35032 ft | 462 kts | 125° |
| 2026-05-07 18:03 | 48.30951 | 11.39767 | 35036 ft | 462 kts | 125° |
| 2026-05-07 18:04 | 48.27440 | 11.47885 | 35033 ft | 463 kts | 125° |
| 2026-05-07 18:04 | 48.23926 | 11.55982 | 35035 ft | 463 kts | 126° |
| 2026-05-07 18:05 | 48.20401 | 11.64060 | 35037 ft | 463 kts | 126° |
| 2026-05-07 18:05 | 48.16860 | 11.72139 | 35042 ft | 463 kts | 126° |
| 2026-05-07 18:06 | 48.13320 | 11.80210 | 35040 ft | 464 kts | 126° |
| 2026-05-07 18:06 | 48.09784 | 11.88269 | 35035 ft | 464 kts | 126° |
| 2026-05-07 18:07 | 48.06230 | 11.96318 | 35031 ft | 464 kts | 126° |
| 2026-05-07 18:07 | 48.02690 | 12.04296 | 35029 ft | 464 kts | 126° |
| 2026-05-07 18:08 | 47.99133 | 12.12325 | 35027 ft | 464 kts | 126° |
| 2026-05-07 18:08 | 47.95558 | 12.20373 | 35026 ft | 465 kts | 126° |
| 2026-05-07 18:09 | 47.92063 | 12.28202 | 35030 ft | 465 kts | 126° |
| 2026-05-07 18:09 | 47.88540 | 12.36078 | 35032 ft | 465 kts | 126° |
| 2026-05-07 18:10 | 47.84945 | 12.44096 | 35029 ft | 466 kts | 127° |
| 2026-05-07 18:10 | 47.81338 | 12.52105 | 35037 ft | 466 kts | 127° |
| 2026-05-07 18:11 | 47.77724 | 12.60102 | 35043 ft | 466 kts | 127° |
| 2026-05-07 18:11 | 47.74119 | 12.68053 | 35040 ft | 466 kts | 127° |
| 2026-05-07 18:12 | 47.70548 | 12.75916 | 35040 ft | 466 kts | 127° |
| 2026-05-07 18:12 | 47.66576 | 12.83372 | 35038 ft | 460 kts | 139° |
| 2026-05-07 18:13 | 47.62067 | 12.90026 | 35032 ft | 461 kts | 139° |
| 2026-05-07 18:13 | 47.57522 | 12.96727 | 35042 ft | 461 kts | 139° |
| 2026-05-07 18:14 | 47.52970 | 13.03435 | 35027 ft | 461 kts | 139° |
| 2026-05-07 18:14 | 47.48423 | 13.10134 | 35032 ft | 462 kts | 139° |
| 2026-05-07 18:15 | 47.43865 | 13.16812 | 35035 ft | 461 kts | 139° |
| 2026-05-07 18:15 | 47.39298 | 13.23480 | 35032 ft | 462 kts | 139° |
| 2026-05-07 18:16 | 47.34748 | 13.30103 | 35036 ft | 462 kts | 139° |
| 2026-05-07 18:16 | 47.30615 | 13.37395 | 35040 ft | 467 kts | 129° |
| 2026-05-07 18:17 | 47.26808 | 13.45156 | 35040 ft | 467 kts | 129° |
| 2026-05-07 18:17 | 47.22988 | 13.52887 | 35035 ft | 467 kts | 130° |
| 2026-05-07 18:18 | 47.19161 | 13.60619 | 35036 ft | 468 kts | 130° |
| 2026-05-07 18:18 | 47.15322 | 13.68360 | 35033 ft | 468 kts | 130° |
| 2026-05-07 18:19 | 47.11511 | 13.76023 | 35030 ft | 468 kts | 130° |
| 2026-05-07 18:19 | 47.07637 | 13.83774 | 35028 ft | 468 kts | 130° |
| 2026-05-07 18:20 | 47.03887 | 13.91276 | 35022 ft | 468 kts | 130° |
| 2026-05-07 18:20 | 47.00041 | 13.98948 | 35014 ft | 468 kts | 130° |
| 2026-05-07 18:21 | 46.96179 | 14.06625 | 35018 ft | 468 kts | 130° |
| 2026-05-07 18:21 | 46.92302 | 14.14316 | 35012 ft | 469 kts | 130° |
| 2026-05-07 18:22 | 46.88427 | 14.21980 | 35008 ft | 469 kts | 131° |
| 2026-05-07 18:22 | 46.84546 | 14.29623 | 35005 ft | 469 kts | 131° |
| 2026-05-07 18:23 | 46.80648 | 14.37272 | 35005 ft | 469 kts | 131° |
| 2026-05-07 18:23 | 46.76785 | 14.44864 | 35007 ft | 469 kts | 131° |
| 2026-05-07 18:24 | 46.72895 | 14.52482 | 35010 ft | 468 kts | 131° |
| 2026-05-07 18:24 | 46.69001 | 14.60080 | 35005 ft | 468 kts | 131° |
| 2026-05-07 18:25 | 46.65101 | 14.67659 | 34994 ft | 468 kts | 132° |
| 2026-05-07 18:25 | 46.61187 | 14.75249 | 34982 ft | 468 kts | 132° |
| 2026-05-07 18:26 | 46.57294 | 14.82772 | 34971 ft | 468 kts | 132° |
| 2026-05-07 18:26 | 46.53375 | 14.90323 | 34968 ft | 468 kts | 132° |
| 2026-05-07 18:27 | 46.49459 | 14.97870 | 34962 ft | 468 kts | 132° |
| 2026-05-07 18:27 | 46.45554 | 15.05378 | 34968 ft | 468 kts | 133° |
| 2026-05-07 18:28 | 46.41631 | 15.12871 | 34965 ft | 469 kts | 133° |
| 2026-05-07 18:28 | 46.37684 | 15.20371 | 34961 ft | 469 kts | 133° |
| 2026-05-07 18:29 | 46.33839 | 15.28039 | 34961 ft | 471 kts | 130° |
| 2026-05-07 18:29 | 46.30137 | 15.35857 | 34953 ft | 471 kts | 130° |
| 2026-05-07 18:30 | 46.26424 | 15.43677 | 34953 ft | 471 kts | 130° |
| 2026-05-07 18:30 | 46.22684 | 15.51366 | 34955 ft | 470 kts | 131° |
| 2026-05-07 18:31 | 46.19013 | 15.58842 | 34972 ft | 470 kts | 131° |
| 2026-05-07 18:31 | 46.14813 | 15.66042 | 34973 ft | 461 kts | 141° |
| 2026-05-07 18:32 | 46.10269 | 15.72564 | 34975 ft | 460 kts | 141° |
| 2026-05-07 18:32 | 46.05738 | 15.79067 | 34977 ft | 460 kts | 141° |
| 2026-05-07 18:33 | 46.01204 | 15.85578 | 34984 ft | 460 kts | 141° |
| 2026-05-07 18:33 | 45.96679 | 15.92049 | 35000 ft | 459 kts | 141° |
| 2026-05-07 18:34 | 45.92146 | 15.98517 | 35002 ft | 458 kts | 141° |
| 2026-05-07 18:34 | 45.87623 | 16.04942 | 35005 ft | 457 kts | 141° |
| 2026-05-07 18:35 | 45.83142 | 16.11314 | 35003 ft | 457 kts | 141° |
| 2026-05-07 18:35 | 45.78624 | 16.17713 | 35001 ft | 456 kts | 142° |
| 2026-05-07 18:36 | 45.74109 | 16.24085 | 35003 ft | 456 kts | 142° |
| 2026-05-07 18:36 | 45.69593 | 16.30443 | 35008 ft | 455 kts | 142° |
| 2026-05-07 18:37 | 45.65075 | 16.36789 | 35011 ft | 455 kts | 142° |
| 2026-05-07 18:37 | 45.61319 | 16.42057 | 35012 ft | 455 kts | 142° |
| 2026-05-07 18:38 | 45.56798 | 16.48395 | 35019 ft | 455 kts | 142° |
| 2026-05-07 18:38 | 45.52273 | 16.54707 | 35014 ft | 455 kts | 142° |
| 2026-05-07 18:39 | 45.47759 | 16.60988 | 35012 ft | 454 kts | 142° |
| 2026-05-07 18:39 | 45.43236 | 16.67281 | 35008 ft | 454 kts | 142° |
| 2026-05-07 18:40 | 45.38711 | 16.73564 | 35008 ft | 454 kts | 142° |
| 2026-05-07 18:40 | 45.34179 | 16.79833 | 35009 ft | 454 kts | 142° |
| 2026-05-07 18:41 | 45.29646 | 16.86092 | 35011 ft | 455 kts | 142° |
| 2026-05-07 18:41 | 45.25099 | 16.92333 | 35011 ft | 455 kts | 142° |
| 2026-05-07 18:42 | 45.20824 | 16.99013 | 35012 ft | 461 kts | 134° |
| 2026-05-07 18:42 | 45.16809 | 17.06091 | 35012 ft | 461 kts | 135° |
| 2026-05-07 18:43 | 45.12783 | 17.13169 | 35010 ft | 461 kts | 135° |
| 2026-05-07 18:43 | 45.08747 | 17.20226 | 35008 ft | 461 kts | 135° |
| 2026-05-07 18:44 | 45.04706 | 17.27283 | 35009 ft | 462 kts | 134° |
| 2026-05-07 18:44 | 45.00661 | 17.34338 | 35007 ft | 462 kts | 135° |
| 2026-05-07 18:45 | 44.96601 | 17.41392 | 35010 ft | 462 kts | 135° |
| 2026-05-07 18:45 | 44.92537 | 17.48427 | 35011 ft | 463 kts | 135° |
| 2026-05-07 18:46 | 44.88463 | 17.55451 | 35016 ft | 463 kts | 135° |
| 2026-05-07 18:46 | 44.84388 | 17.62478 | 35016 ft | 463 kts | 135° |
| 2026-05-07 18:47 | 44.80307 | 17.69498 | 35016 ft | 463 kts | 135° |
| 2026-05-07 18:47 | 44.76246 | 17.76463 | 35017 ft | 463 kts | 135° |
| 2026-05-07 18:48 | 44.72152 | 17.83468 | 35014 ft | 464 kts | 135° |
| 2026-05-07 18:48 | 44.68061 | 17.90465 | 35013 ft | 464 kts | 135° |
| 2026-05-07 18:49 | 44.63951 | 17.97460 | 35013 ft | 464 kts | 135° |
| 2026-05-07 18:49 | 44.59836 | 18.04444 | 35027 ft | 464 kts | 135° |
| 2026-05-07 18:50 | 44.55723 | 18.11420 | 35020 ft | 464 kts | 135° |
| 2026-05-07 18:50 | 44.51598 | 18.18385 | 35019 ft | 464 kts | 135° |
| 2026-05-07 18:51 | 44.47465 | 18.25347 | 35025 ft | 464 kts | 135° |
| 2026-05-07 18:51 | 44.43338 | 18.32299 | 35022 ft | 464 kts | 135° |
| 2026-05-07 18:52 | 44.39209 | 18.39243 | 35021 ft | 465 kts | 135° |
| 2026-05-07 18:52 | 44.35066 | 18.46180 | 35018 ft | 465 kts | 135° |
| 2026-05-07 18:53 | 44.30918 | 18.53096 | 35015 ft | 464 kts | 135° |
| 2026-05-07 18:53 | 44.26765 | 18.59994 | 35022 ft | 465 kts | 135° |
| 2026-05-07 18:54 | 44.22590 | 18.66883 | 35026 ft | 465 kts | 135° |
| 2026-05-07 18:54 | 44.18419 | 18.73761 | 35030 ft | 465 kts | 135° |
| 2026-05-07 18:55 | 44.14248 | 18.80639 | 35032 ft | 465 kts | 135° |
| 2026-05-07 18:55 | 44.10066 | 18.87509 | 35039 ft | 465 kts | 135° |
| 2026-05-07 18:56 | 44.05875 | 18.94371 | 35042 ft | 465 kts | 135° |
| 2026-05-07 18:56 | 44.01683 | 19.01217 | 35037 ft | 465 kts | 135° |
| 2026-05-07 18:57 | 43.97482 | 19.08062 | 35054 ft | 466 kts | 135° |
| 2026-05-07 18:57 | 43.93285 | 19.14903 | 35054 ft | 466 kts | 135° |
| 2026-05-07 18:58 | 43.89073 | 19.21741 | 35053 ft | 466 kts | 135° |
| 2026-05-07 18:58 | 43.84854 | 19.28569 | 35052 ft | 466 kts | 135° |
| 2026-05-07 18:59 | 43.80628 | 19.35378 | 35050 ft | 467 kts | 135° |
| 2026-05-07 18:59 | 43.76393 | 19.42192 | 35049 ft | 467 kts | 135° |
| 2026-05-07 19:00 | 43.72159 | 19.48994 | 35054 ft | 467 kts | 135° |
| 2026-05-07 19:00 | 43.67920 | 19.55795 | 35058 ft | 467 kts | 135° |
| 2026-05-07 19:01 | 43.63675 | 19.62597 | 35062 ft | 467 kts | 135° |
| 2026-05-07 19:01 | 43.59456 | 19.69341 | 35063 ft | 467 kts | 135° |
| 2026-05-07 19:02 | 43.55203 | 19.76116 | 35065 ft | 468 kts | 135° |
| 2026-05-07 19:02 | 43.50936 | 19.82892 | 35070 ft | 468 kts | 135° |
| 2026-05-07 19:03 | 43.46667 | 19.89649 | 35071 ft | 468 kts | 135° |
| 2026-05-07 19:03 | 43.42387 | 19.96408 | 35079 ft | 468 kts | 135° |
| 2026-05-07 19:04 | 43.38108 | 20.03158 | 35081 ft | 469 kts | 135° |
| 2026-05-07 19:04 | 43.33822 | 20.09907 | 35079 ft | 469 kts | 135° |
| 2026-05-07 19:05 | 43.29519 | 20.16656 | 35080 ft | 469 kts | 135° |
| 2026-05-07 19:05 | 43.25219 | 20.23400 | 35087 ft | 470 kts | 135° |
| 2026-05-07 19:06 | 43.20903 | 20.30146 | 35088 ft | 470 kts | 135° |
| 2026-05-07 19:06 | 43.14415 | 20.40240 | 35089 ft | 471 kts | 135° |
| 2026-05-07 19:07 | 43.10085 | 20.46961 | 35093 ft | 471 kts | 136° |
| 2026-05-07 19:07 | 43.05744 | 20.53694 | 35092 ft | 472 kts | 136° |
| 2026-05-07 19:08 | 43.01396 | 20.60420 | 35087 ft | 473 kts | 136° |
| 2026-05-07 19:08 | 42.96878 | 20.66931 | 35091 ft | 471 kts | 140° |
| 2026-05-07 19:09 | 42.92112 | 20.73039 | 35092 ft | 470 kts | 142° |
| 2026-05-07 19:09 | 42.87381 | 20.78996 | 35088 ft | 471 kts | 142° |
| 2026-05-07 19:10 | 42.82612 | 20.85142 | 35086 ft | 473 kts | 141° |
| 2026-05-07 19:10 | 42.77915 | 20.91283 | 35088 ft | 474 kts | 141° |
| 2026-05-07 19:11 | 42.73151 | 20.97495 | 35088 ft | 475 kts | 141° |
| 2026-05-07 19:11 | 42.68380 | 21.03665 | 35084 ft | 476 kts | 141° |
| 2026-05-07 19:12 | 42.63538 | 21.09900 | 35082 ft | 478 kts | 141° |
| 2026-05-07 19:12 | 42.58738 | 21.16077 | 35082 ft | 479 kts | 141° |
| 2026-05-07 19:13 | 42.53895 | 21.22305 | 35085 ft | 480 kts | 141° |
| 2026-05-07 19:13 | 42.49039 | 21.28528 | 35088 ft | 481 kts | 141° |
| 2026-05-07 19:14 | 42.44162 | 21.34765 | 35085 ft | 482 kts | 141° |
| 2026-05-07 19:14 | 42.39280 | 21.40994 | 35093 ft | 483 kts | 141° |
| 2026-05-07 19:15 | 42.34375 | 21.47233 | 35090 ft | 485 kts | 142° |
| 2026-05-07 19:15 | 42.29452 | 21.53475 | 35074 ft | 485 kts | 142° |
| 2026-05-07 19:16 | 42.24521 | 21.59718 | 35081 ft | 486 kts | 142° |
| 2026-05-07 19:16 | 42.19649 | 21.65969 | 35076 ft | 487 kts | 140° |
| 2026-05-07 19:17 | 42.14803 | 21.72465 | 35086 ft | 489 kts | 139° |
| 2026-05-07 19:17 | 42.09990 | 21.78948 | 35071 ft | 490 kts | 140° |
| 2026-05-07 19:18 | 42.05283 | 21.85201 | 35076 ft | 490 kts | 140° |
| 2026-05-07 19:18 | 42.00455 | 21.91540 | 35078 ft | 491 kts | 140° |
| 2026-05-07 19:19 | 41.95586 | 21.97925 | 35080 ft | 493 kts | 140° |
| 2026-05-07 19:19 | 41.90740 | 22.04289 | 35084 ft | 494 kts | 140° |
| 2026-05-07 19:20 | 41.85812 | 22.10764 | 35080 ft | 495 kts | 140° |
| 2026-05-07 19:20 | 41.80878 | 22.17210 | 35082 ft | 496 kts | 141° |
| 2026-05-07 19:21 | 41.76027 | 22.23526 | 35089 ft | 498 kts | 141° |
| 2026-05-07 19:21 | 41.71049 | 22.30006 | 35087 ft | 500 kts | 141° |
| 2026-05-07 19:22 | 41.66059 | 22.36506 | 35082 ft | 501 kts | 141° |
| 2026-05-07 19:22 | 41.61062 | 22.42976 | 35087 ft | 503 kts | 141° |
| 2026-05-07 19:23 | 41.56030 | 22.49468 | 35088 ft | 504 kts | 141° |
| 2026-05-07 19:23 | 41.50982 | 22.55979 | 35089 ft | 506 kts | 141° |
| 2026-05-07 19:24 | 41.45903 | 22.62519 | 35096 ft | 508 kts | 141° |
| 2026-05-07 19:24 | 41.40848 | 22.69014 | 35094 ft | 509 kts | 141° |
| 2026-05-07 19:25 | 41.35850 | 22.75408 | 35109 ft | 511 kts | 141° |
| 2026-05-07 19:25 | 41.30950 | 22.82201 | 35103 ft | 516 kts | 135° |
| 2026-05-07 19:26 | 41.26587 | 22.88966 | 35098 ft | 517 kts | 135° |
| 2026-05-07 19:26 | 41.22832 | 22.94777 | 35103 ft | 518 kts | 135° |
| 2026-05-07 19:27 | 41.18394 | 23.01611 | 35108 ft | 519 kts | 135° |
| 2026-05-07 19:27 | 41.13676 | 23.08848 | 35106 ft | 519 kts | 135° |
| 2026-05-07 19:28 | 41.08950 | 23.16094 | 35102 ft | 519 kts | 135° |
| 2026-05-07 19:28 | 41.04220 | 23.23342 | 35098 ft | 520 kts | 135° |
| 2026-05-07 19:29 | 40.99508 | 23.30539 | 35091 ft | 521 kts | 135° |
| 2026-05-07 19:29 | 40.94715 | 23.37822 | 35094 ft | 521 kts | 135° |
| 2026-05-07 19:30 | 40.89974 | 23.45008 | 35094 ft | 522 kts | 135° |
| 2026-05-07 19:30 | 40.85198 | 23.52235 | 35092 ft | 523 kts | 135° |
| 2026-05-07 19:31 | 40.80407 | 23.59486 | 35094 ft | 524 kts | 134° |
| 2026-05-07 19:31 | 40.78017 | 23.63100 | 35092 ft | 524 kts | 135° |
| 2026-05-07 19:32 | 40.74869 | 23.67812 | 35097 ft | 524 kts | 135° |
| 2026-05-07 19:32 | 40.70056 | 23.75031 | 35097 ft | 525 kts | 134° |
| 2026-05-07 19:33 | 40.65237 | 23.82282 | 35103 ft | 526 kts | 134° |
| 2026-05-07 19:33 | 40.60415 | 23.89513 | 35101 ft | 526 kts | 134° |
| 2026-05-07 19:34 | 40.55575 | 23.96747 | 35101 ft | 526 kts | 134° |
| 2026-05-07 19:34 | 40.50731 | 24.03953 | 35101 ft | 527 kts | 134° |
| 2026-05-07 19:35 | 40.45912 | 24.11111 | 35103 ft | 527 kts | 134° |
| 2026-05-07 19:35 | 40.41042 | 24.18328 | 35103 ft | 528 kts | 134° |
| 2026-05-07 19:36 | 40.36171 | 24.25531 | 35105 ft | 528 kts | 134° |
| 2026-05-07 19:36 | 40.31297 | 24.32735 | 35106 ft | 529 kts | 134° |
| 2026-05-07 19:37 | 40.26410 | 24.39935 | 35108 ft | 529 kts | 134° |
| 2026-05-07 19:37 | 40.21515 | 24.47106 | 35110 ft | 529 kts | 134° |
| 2026-05-07 19:38 | 40.16601 | 24.54283 | 35115 ft | 529 kts | 134° |
| 2026-05-07 19:38 | 40.11696 | 24.61458 | 35111 ft | 529 kts | 134° |
| 2026-05-07 19:39 | 40.06782 | 24.68631 | 35108 ft | 530 kts | 134° |
| 2026-05-07 19:39 | 40.01862 | 24.75788 | 35110 ft | 530 kts | 134° |
| 2026-05-07 19:40 | 39.96929 | 24.82942 | 35117 ft | 530 kts | 134° |
| 2026-05-07 19:40 | 39.92023 | 24.90038 | 35112 ft | 530 kts | 134° |
| 2026-05-07 19:41 | 39.87080 | 24.97165 | 35109 ft | 530 kts | 134° |
| 2026-05-07 19:41 | 39.82139 | 25.04297 | 35105 ft | 531 kts | 134° |
| 2026-05-07 19:42 | 39.77188 | 25.11429 | 35105 ft | 531 kts | 134° |
| 2026-05-07 19:42 | 39.72231 | 25.18537 | 35109 ft | 531 kts | 134° |
| 2026-05-07 19:43 | 39.67266 | 25.25650 | 35118 ft | 531 kts | 134° |
| 2026-05-07 19:43 | 39.62289 | 25.32753 | 35123 ft | 531 kts | 134° |
| 2026-05-07 19:44 | 39.57311 | 25.39830 | 35132 ft | 531 kts | 134° |
| 2026-05-07 19:44 | 39.52332 | 25.46896 | 35133 ft | 531 kts | 134° |
| 2026-05-07 19:45 | 39.47352 | 25.53964 | 35135 ft | 531 kts | 134° |
| 2026-05-07 19:45 | 39.42376 | 25.61022 | 35140 ft | 531 kts | 134° |
| 2026-05-07 19:46 | 39.37457 | 25.67966 | 35143 ft | 530 kts | 134° |
| 2026-05-07 19:46 | 39.32655 | 25.74719 | 35145 ft | 530 kts | 134° |
| 2026-05-07 19:47 | 39.27663 | 25.81729 | 35141 ft | 530 kts | 134° |
| 2026-05-07 19:47 | 39.22664 | 25.88727 | 35141 ft | 530 kts | 134° |
| 2026-05-07 19:48 | 39.17672 | 25.95713 | 35141 ft | 530 kts | 134° |
| 2026-05-07 19:48 | 39.12675 | 26.02686 | 35141 ft | 529 kts | 133° |
| 2026-05-07 19:49 | 39.07672 | 26.09658 | 35139 ft | 530 kts | 133° |
| 2026-05-07 19:49 | 39.02668 | 26.16617 | 35138 ft | 530 kts | 134° |
| 2026-05-07 19:50 | 38.97691 | 26.23507 | 35139 ft | 529 kts | 133° |
| 2026-05-07 19:50 | 38.92675 | 26.30443 | 35142 ft | 529 kts | 133° |
| 2026-05-07 19:51 | 38.87709 | 26.37400 | 35144 ft | 529 kts | 128° |
| 2026-05-07 19:51 | 38.83909 | 26.45421 | 35148 ft | 523 kts | 109° |
| 2026-05-07 19:52 | 38.81991 | 26.54273 | 35151 ft | 511 kts | 92° |
| 2026-05-07 19:52 | 38.80908 | 26.63267 | 35156 ft | 511 kts | 93° |
| 2026-05-07 19:53 | 38.79794 | 26.72260 | 35162 ft | 510 kts | 93° |
| 2026-05-07 19:53 | 38.78660 | 26.81229 | 35167 ft | 509 kts | 94° |
| 2026-05-07 19:54 | 38.77128 | 26.90107 | 35169 ft | 515 kts | 107° |
| 2026-05-07 19:54 | 38.73658 | 26.98152 | 35169 ft | 519 kts | 128° |
| 2026-05-07 19:55 | 38.71223 | 27.01549 | 35168 ft | 517 kts | 139° |
| 2026-05-07 19:55 | 38.68441 | 27.04435 | 35166 ft | 515 kts | 146° |
| 2026-05-07 19:55 | 38.62891 | 27.09694 | 35159 ft | 515 kts | 146° |
| 2026-05-07 19:56 | 38.57129 | 27.15142 | 35154 ft | 515 kts | 146° |
| 2026-05-07 19:56 | 38.51361 | 27.20589 | 35160 ft | 516 kts | 146° |
| 2026-05-07 19:57 | 38.45622 | 27.25990 | 35159 ft | 515 kts | 146° |
| 2026-05-07 19:57 | 38.39853 | 27.31404 | 35156 ft | 516 kts | 145° |
| 2026-05-07 19:58 | 38.34072 | 27.36819 | 35149 ft | 516 kts | 145° |
| 2026-05-07 19:58 | 38.28280 | 27.42243 | 35144 ft | 517 kts | 145° |
| 2026-05-07 19:59 | 38.22487 | 27.47661 | 35144 ft | 517 kts | 145° |
| 2026-05-07 19:59 | 38.16683 | 27.53064 | 35157 ft | 517 kts | 145° |
| 2026-05-07 20:00 | 38.10872 | 27.58461 | 35168 ft | 517 kts | 145° |
| 2026-05-07 20:00 | 38.05074 | 27.63845 | 35169 ft | 517 kts | 145° |
| 2026-05-07 20:01 | 37.99404 | 27.69086 | 35164 ft | 516 kts | 145° |
| 2026-05-07 20:01 | 37.93867 | 27.74191 | 35149 ft | 516 kts | 145° |
| 2026-05-07 20:02 | 37.88144 | 27.79484 | 35150 ft | 516 kts | 145° |
| 2026-05-07 20:02 | 37.82354 | 27.84835 | 35152 ft | 515 kts | 145° |
| 2026-05-07 20:03 | 37.76572 | 27.90152 | 35159 ft | 514 kts | 145° |
| 2026-05-07 20:03 | 37.70795 | 27.95454 | 35158 ft | 513 kts | 145° |
| 2026-05-07 20:04 | 37.65056 | 28.00704 | 35153 ft | 512 kts | 145° |
| 2026-05-07 20:04 | 37.59254 | 28.06001 | 35160 ft | 511 kts | 145° |
| 2026-05-07 20:05 | 37.53504 | 28.11251 | 35169 ft | 510 kts | 145° |
| 2026-05-07 20:05 | 37.47793 | 28.16451 | 35175 ft | 508 kts | 145° |
| 2026-05-07 20:06 | 37.42069 | 28.21644 | 35178 ft | 507 kts | 145° |
| 2026-05-07 20:06 | 37.36345 | 28.26827 | 35181 ft | 507 kts | 145° |
| 2026-05-07 20:07 | 37.30624 | 28.32003 | 35187 ft | 506 kts | 145° |
| 2026-05-07 20:07 | 37.24911 | 28.37152 | 35191 ft | 505 kts | 145° |
| 2026-05-07 20:08 | 37.19390 | 28.42130 | 35195 ft | 504 kts | 145° |
| 2026-05-07 20:08 | 37.13697 | 28.47266 | 35195 ft | 504 kts | 145° |
| 2026-05-07 20:09 | 37.08064 | 28.52320 | 35189 ft | 503 kts | 145° |
| 2026-05-07 20:10 | 36.99535 | 28.59948 | 35192 ft | 502 kts | 145° |
| 2026-05-07 20:10 | 36.93850 | 28.65039 | 35196 ft | 502 kts | 145° |
| 2026-05-07 20:11 | 36.88176 | 28.70117 | 35201 ft | 501 kts | 145° |
| 2026-05-07 20:11 | 36.82501 | 28.75179 | 35201 ft | 501 kts | 145° |
| 2026-05-07 20:12 | 36.76825 | 28.80218 | 35206 ft | 500 kts | 145° |
| 2026-05-07 20:12 | 36.71191 | 28.85210 | 35206 ft | 500 kts | 145° |
| 2026-05-07 20:13 | 36.65546 | 28.90201 | 35207 ft | 499 kts | 145° |
| 2026-05-07 20:13 | 36.59970 | 28.95116 | 35200 ft | 499 kts | 145° |
| 2026-05-07 20:14 | 36.54319 | 29.00112 | 35196 ft | 498 kts | 145° |
| 2026-05-07 20:14 | 36.48679 | 29.05096 | 35190 ft | 497 kts | 145° |
| 2026-05-07 20:15 | 36.43032 | 29.10062 | 35183 ft | 497 kts | 145° |
| 2026-05-07 20:15 | 36.37387 | 29.15000 | 35173 ft | 496 kts | 145° |
| 2026-05-07 20:16 | 36.31745 | 29.19947 | 35167 ft | 496 kts | 145° |
| 2026-05-07 20:16 | 36.26109 | 29.24878 | 35168 ft | 496 kts | 145° |
| 2026-05-07 20:17 | 36.20530 | 29.29896 | 35164 ft | 496 kts | 139° |
| 2026-05-07 20:17 | 36.16005 | 29.36263 | 35163 ft | 492 kts | 120° |
| 2026-05-07 20:18 | 36.12377 | 29.43426 | 35164 ft | 491 kts | 120° |
| 2026-05-07 20:18 | 36.08760 | 29.50514 | 35165 ft | 490 kts | 120° |
| 2026-05-07 20:19 | 36.05120 | 29.57620 | 35166 ft | 489 kts | 120° |
| 2026-05-07 20:19 | 36.01492 | 29.64723 | 35171 ft | 488 kts | 120° |
| 2026-05-07 20:20 | 35.97872 | 29.71786 | 35167 ft | 486 kts | 120° |
| 2026-05-07 20:20 | 35.94256 | 29.78807 | 35093 ft | 481 kts | 121° |
| 2026-05-07 20:20 | 35.92474 | 29.82268 | 34746 ft | 474 kts | 121° |
| 2026-05-07 20:21 | 35.90722 | 29.85672 | 34398 ft | 467 kts | 121° |
| 2026-05-07 20:21 | 35.88995 | 29.89035 | 34034 ft | 461 kts | 121° |
| 2026-05-07 20:21 | 35.87290 | 29.92346 | 33618 ft | 456 kts | 121° |
| 2026-05-07 20:21 | 35.85593 | 29.95636 | 33220 ft | 451 kts | 121° |
| 2026-05-07 20:22 | 35.83990 | 29.98878 | 33101 ft | 447 kts | 116° |
| 2026-05-07 20:22 | 35.81840 | 30.06024 | 33138 ft | 445 kts | 105° |
| 2026-05-07 20:23 | 35.79995 | 30.13350 | 33136 ft | 445 kts | 105° |
| 2026-05-07 20:23 | 35.78151 | 30.20591 | 33139 ft | 444 kts | 105° |
| 2026-05-07 20:24 | 35.76317 | 30.27831 | 33144 ft | 444 kts | 105° |
| 2026-05-07 20:24 | 35.74781 | 30.33896 | 33145 ft | 443 kts | 105° |
| 2026-05-07 20:25 | 35.72943 | 30.41125 | 33139 ft | 443 kts | 105° |
| 2026-05-07 20:25 | 35.71098 | 30.48357 | 33139 ft | 443 kts | 105° |
| 2026-05-07 20:26 | 35.69252 | 30.55578 | 33140 ft | 442 kts | 105° |
| 2026-05-07 20:26 | 35.67397 | 30.62795 | 33140 ft | 442 kts | 106° |
| 2026-05-07 20:27 | 35.65545 | 30.69992 | 33144 ft | 442 kts | 106° |
| 2026-05-07 20:27 | 35.63686 | 30.77205 | 33143 ft | 442 kts | 106° |
| 2026-05-07 20:28 | 35.61713 | 30.84364 | 33075 ft | 444 kts | 113° |
| 2026-05-07 20:28 | 35.60263 | 30.87696 | 32576 ft | 442 kts | 123° |
| 2026-05-07 20:28 | 35.58569 | 30.90832 | 32099 ft | 439 kts | 123° |
| 2026-05-07 20:28 | 35.56884 | 30.93952 | 31624 ft | 436 kts | 123° |
| 2026-05-07 20:29 | 35.55218 | 30.97047 | 31152 ft | 433 kts | 123° |
| 2026-05-07 20:29 | 35.53566 | 31.00127 | 30701 ft | 430 kts | 123° |
| 2026-05-07 20:29 | 35.51929 | 31.03193 | 30230 ft | 428 kts | 123° |
| 2026-05-07 20:29 | 35.50303 | 31.06233 | 29743 ft | 424 kts | 123° |
| 2026-05-07 20:30 | 35.48692 | 31.09239 | 29306 ft | 419 kts | 123° |
| 2026-05-07 20:30 | 35.47103 | 31.12200 | 28886 ft | 414 kts | 123° |
| 2026-05-07 20:30 | 35.45521 | 31.15143 | 28462 ft | 410 kts | 123° |
| 2026-05-07 20:30 | 35.43959 | 31.18040 | 28046 ft | 406 kts | 123° |
| 2026-05-07 20:31 | 35.42408 | 31.20913 | 27637 ft | 401 kts | 123° |
| 2026-05-07 20:31 | 35.40875 | 31.23754 | 27223 ft | 398 kts | 123° |
| 2026-05-07 20:31 | 35.39358 | 31.26571 | 26785 ft | 395 kts | 122° |
| 2026-05-07 20:31 | 35.37853 | 31.29363 | 26388 ft | 392 kts | 123° |
| 2026-05-07 20:32 | 35.36353 | 31.32135 | 25967 ft | 389 kts | 123° |
| 2026-05-07 20:32 | 35.34859 | 31.34899 | 25543 ft | 387 kts | 122° |
| 2026-05-07 20:32 | 35.33378 | 31.37644 | 25095 ft | 386 kts | 122° |
| 2026-05-07 20:32 | 35.31900 | 31.40379 | 24656 ft | 384 kts | 122° |
| 2026-05-07 20:33 | 35.30424 | 31.43106 | 24224 ft | 383 kts | 122° |
| 2026-05-07 20:33 | 35.28952 | 31.45820 | 23770 ft | 383 kts | 122° |
| 2026-05-07 20:33 | 35.27479 | 31.48532 | 23284 ft | 382 kts | 122° |
| 2026-05-07 20:33 | 35.26010 | 31.51232 | 22837 ft | 380 kts | 122° |
| 2026-05-07 20:34 | 35.24549 | 31.53914 | 22394 ft | 378 kts | 122° |
| 2026-05-07 20:34 | 35.23095 | 31.56583 | 21946 ft | 376 kts | 122° |
| 2026-05-07 20:34 | 35.21648 | 31.59234 | 21527 ft | 375 kts | 122° |
| 2026-05-07 20:34 | 35.20203 | 31.61880 | 21108 ft | 373 kts | 122° |
| 2026-05-07 20:35 | 35.18767 | 31.64514 | 20672 ft | 372 kts | 122° |
| 2026-05-07 20:35 | 35.17334 | 31.67142 | 20252 ft | 371 kts | 122° |
| 2026-05-07 20:35 | 35.15906 | 31.69761 | 19834 ft | 370 kts | 122° |
| 2026-05-07 20:35 | 35.14476 | 31.72378 | 19405 ft | 370 kts | 122° |
| 2026-05-07 20:36 | 35.13054 | 31.74983 | 18991 ft | 369 kts | 122° |
| 2026-05-07 20:36 | 35.11626 | 31.77593 | 18574 ft | 369 kts | 122° |
| 2026-05-07 20:36 | 35.10197 | 31.80199 | 18120 ft | 369 kts | 123° |
| 2026-05-07 20:36 | 35.08773 | 31.82795 | 17702 ft | 367 kts | 123° |
| 2026-05-07 20:37 | 35.07353 | 31.85384 | 17294 ft | 366 kts | 123° |
| 2026-05-07 20:37 | 35.05940 | 31.87956 | 16882 ft | 364 kts | 123° |
| 2026-05-07 20:37 | 35.04527 | 31.90519 | 16472 ft | 363 kts | 123° |
| 2026-05-07 20:37 | 35.03122 | 31.93068 | 16061 ft | 362 kts | 123° |
| 2026-05-07 20:38 | 35.01717 | 31.95622 | 15656 ft | 361 kts | 123° |
| 2026-05-07 20:38 | 35.00316 | 31.98163 | 15247 ft | 360 kts | 123° |
| 2026-05-07 20:38 | 34.98922 | 32.00692 | 14842 ft | 360 kts | 123° |
| 2026-05-07 20:38 | 34.97530 | 32.03216 | 14515 ft | 356 kts | 123° |
| 2026-05-07 20:39 | 34.96156 | 32.05702 | 14025 ft | 349 kts | 123° |
| 2026-05-07 20:39 | 34.94818 | 32.08123 | 13606 ft | 340 kts | 122° |
| 2026-05-07 20:39 | 34.93522 | 32.10470 | 13214 ft | 329 kts | 122° |
| 2026-05-07 20:39 | 34.92261 | 32.12757 | 12843 ft | 321 kts | 122° |
| 2026-05-07 20:40 | 34.91014 | 32.15014 | 12469 ft | 321 kts | 122° |
| 2026-05-07 20:40 | 34.89767 | 32.17265 | 12093 ft | 321 kts | 123° |
| 2026-05-07 20:40 | 34.88518 | 32.19512 | 11697 ft | 320 kts | 123° |
| 2026-05-07 20:40 | 34.87266 | 32.21758 | 11311 ft | 320 kts | 123° |
| 2026-05-07 20:41 | 34.86013 | 32.23999 | 10910 ft | 320 kts | 123° |
| 2026-05-07 20:41 | 34.84763 | 32.26236 | 10522 ft | 319 kts | 123° |
| 2026-05-07 20:41 | 34.83536 | 32.28433 | 10389 ft | 308 kts | 123° |
| 2026-05-07 20:41 | 34.82348 | 32.30559 | 9891 ft | 302 kts | 122° |
| 2026-05-07 20:42 | 34.81176 | 32.32659 | 9357 ft | 296 kts | 122° |
| 2026-05-07 20:42 | 34.80030 | 32.34708 | 8886 ft | 289 kts | 122° |
| 2026-05-07 20:42 | 34.78914 | 32.36709 | 8394 ft | 282 kts | 122° |
| 2026-05-07 20:42 | 34.77831 | 32.38655 | 8018 ft | 274 kts | 122° |
| 2026-05-07 20:43 | 34.76763 | 32.40576 | 7623 ft | 274 kts | 122° |
| 2026-05-07 20:43 | 34.75708 | 32.42471 | 7258 ft | 274 kts | 122° |
| 2026-05-07 20:43 | 34.74650 | 32.44365 | 7076 ft | 264 kts | 122° |
| 2026-05-07 20:43 | 34.73643 | 32.46165 | 6991 ft | 252 kts | 122° |
| 2026-05-07 20:44 | 34.72680 | 32.47887 | 6894 ft | 243 kts | 121° |
| 2026-05-07 20:44 | 34.71730 | 32.49584 | 6775 ft | 242 kts | 121° |
| 2026-05-07 20:44 | 34.70727 | 32.51222 | 6629 ft | 243 kts | 128° |
| 2026-05-07 20:44 | 34.69628 | 32.52783 | 6288 ft | 243 kts | 128° |
| 2026-05-07 20:45 | 34.68530 | 32.54340 | 5974 ft | 242 kts | 128° |
| 2026-05-07 20:45 | 34.67434 | 32.55895 | 5655 ft | 242 kts | 128° |
| 2026-05-07 20:45 | 34.66345 | 32.57443 | 5361 ft | 240 kts | 128° |
| 2026-05-07 20:45 | 34.65263 | 32.58983 | 5066 ft | 240 kts | 128° |
| 2026-05-07 20:46 | 34.64179 | 32.60521 | 4760 ft | 240 kts | 128° |
| 2026-05-07 20:46 | 34.63095 | 32.62056 | 4451 ft | 239 kts | 128° |
| 2026-05-07 20:46 | 34.62016 | 32.63584 | 4155 ft | 238 kts | 128° |
| 2026-05-07 20:46 | 34.61039 | 32.65179 | 3914 ft | 232 kts | 111° |
| 2026-05-07 20:47 | 34.60816 | 32.67014 | 3756 ft | 220 kts | 78° |
| 2026-05-07 20:47 | 34.61397 | 32.68627 | 3600 ft | 203 kts | 47° |
| 2026-05-07 20:47 | 34.62509 | 32.69606 | 3443 ft | 194 kts | 19° |
| 2026-05-07 20:47 | 34.63782 | 32.69787 | 3374 ft | 179 kts | 352° |
| 2026-05-07 20:48 | 34.64911 | 32.69284 | 3274 ft | 170 kts | 327° |
| 2026-05-07 20:48 | 34.65721 | 32.68271 | 3127 ft | 166 kts | 302° |
| 2026-05-07 20:48 | 34.66164 | 32.66986 | 2944 ft | 164 kts | 292° |
| 2026-05-07 20:48 | 34.66560 | 32.65691 | 2744 ft | 164 kts | 292° |
| 2026-05-07 20:49 | 34.66956 | 32.64400 | 2529 ft | 163 kts | 293° |
| 2026-05-07 20:49 | 34.67351 | 32.63110 | 2323 ft | 161 kts | 292° |
| 2026-05-07 20:49 | 34.67731 | 32.61866 | 2119 ft | 154 kts | 293° |
| 2026-05-07 20:49 | 34.68095 | 32.60675 | 1909 ft | 149 kts | 294° |
| 2026-05-07 20:50 | 34.68453 | 32.59506 | 1723 ft | 147 kts | 293° |
| 2026-05-07 20:50 | 34.68804 | 32.58356 | 1523 ft | 144 kts | 294° |
| 2026-05-07 20:50 | 34.69152 | 32.57217 | 1330 ft | 144 kts | 294° |
| 2026-05-07 20:50 | 34.69500 | 32.56079 | 1145 ft | 143 kts | 294° |
| 2026-05-07 20:51 | 34.69844 | 32.54951 | 951 ft | 141 kts | 294° |
| 2026-05-07 20:51 | 34.70181 | 32.53846 | 749 ft | 140 kts | 293° |
| 2026-05-07 20:51 | 34.70523 | 32.52727 | 577 ft | 140 kts | 293° |
| 2026-05-07 20:51 | 34.70858 | 32.51626 | 374 ft | 140 kts | 293° |
| 2026-05-07 20:52 | 34.71194 | 32.50526 | 202 ft | 140 kts | 294° |
| 2026-05-07 20:52 | 34.71533 | 32.49413 | 45 ft | 136 kts | 294° |
| 2026-05-07 20:52 | 34.71810 | 32.48509 | 44 ft | 90 kts | 290° |
| 2026-05-07 20:52 | 34.71978 | 32.47954 | 43 ft | 55 kts | 291° |
| 2026-05-07 20:53 | 34.72081 | 32.47613 | 46 ft | 37 kts | 290° |
| 2026-05-07 20:53 | 34.72167 | 32.47332 | 43 ft | 34 kts | 290° |
| 2026-05-07 20:53 | 34.72234 | 32.47143 | 43 ft | 13 kts | 315° |
| 2026-05-07 20:53 | 34.72315 | 32.47147 | 44 ft | 12 kts | 17° |
| 2026-05-07 20:54 | 34.72380 | 32.47211 | 43 ft | 13 kts | 81° |
| 2026-05-07 20:54 | 34.72353 | 32.47308 | 43 ft | 11 kts | 110° |
| 2026-05-07 20:54 | 34.72328 | 32.47390 | 43 ft | 10 kts | 110° |
| 2026-05-07 20:54 | 34.72306 | 32.47460 | 43 ft | 8 kts | 110° |
| 2026-05-07 20:55 | 34.72287 | 32.47520 | 42 ft | 9 kts | 111° |
| 2026-05-07 20:55 | 34.72256 | 32.47621 | 44 ft | 17 kts | 111° |
| 2026-05-07 20:55 | 34.72205 | 32.47784 | 44 ft | 24 kts | 109° |
| 2026-05-07 20:55 | 34.72145 | 32.47987 | 41 ft | 26 kts | 110° |
| 2026-05-07 20:56 | 34.72080 | 32.48200 | 43 ft | 27 kts | 111° |
| 2026-05-07 20:56 | 34.72015 | 32.48413 | 42 ft | 26 kts | 110° |
| 2026-05-07 20:56 | 34.71939 | 32.48475 | 43 ft | 13 kts | 197° |
| 2026-05-07 20:56 | 34.71859 | 32.48444 | 44 ft | 11 kts | 198° |
| 2026-05-07 20:57 | 34.71792 | 32.48416 | 44 ft | 10 kts | 199° |
| 2026-05-07 20:57 | 34.71730 | 32.48388 | 44 ft | 10 kts | 200° |
| 2026-05-07 20:57 | 34.71669 | 32.48361 | 43 ft | 9 kts | 200° |
| 2026-05-07 20:57 | 34.71612 | 32.48335 | 43 ft | 8 kts | 200° |
| 2026-05-07 20:58 | 34.71558 | 32.48309 | 44 ft | 9 kts | 201° |
| 2026-05-07 20:58 | 34.71486 | 32.48277 | 44 ft | 12 kts | 200° |
| 2026-05-07 20:58 | 34.71405 | 32.48285 | 44 ft | 13 kts | 124° |
| 2026-05-07 20:58 | 34.71371 | 32.48397 | 44 ft | 16 kts | 110° |
| 2026-05-07 20:59 | 34.71340 | 32.48533 | 44 ft | 18 kts | 90° |
| 2026-05-07 20:59 | 34.71391 | 32.48648 | 42 ft | 17 kts | 43° |
| 2026-05-07 20:59 | 34.71395 | 32.48703 | 44 ft | 4 kts | 144° |
| 2026-05-07 20:59 | 34.71365 | 32.48725 | 44 ft | 5 kts | 152° |
| 2026-05-07 21:00 | 34.71336 | 32.48741 | 44 ft | 1 kts | 155° |
| 2026-05-07 21:00 | 34.71330 | 32.48744 | 44 ft | 1 kts | 155° |
| 2026-05-07 21:00 | 34.71326 | 32.48746 | 44 ft | 0 kts | 155° |